This is the latest recevied weather packets stored in our database for station/object K4OAM-13. If no packets are shown the sender has not sent any weather packets the latest 10 day(s).
| Time | Temp. | Humidity | Pressure | Rain* | Wind** | Luminosity | Snow |
|---|---|---|---|---|---|---|---|
| 1777789556 | -0.56° C | 89% | 1017.5 hPa | - | - | - | - |
| 1777788955 | 0° C | 88% | 1017.7 hPa | - | - | - | - |
| 1777788356 | 0° C | 89% | 1017.9 hPa | - | - | - | - |
| 1777787756 | 0° C | 88% | 1018 hPa | - | - | - | - |
| 1777787156 | 0° C | 87% | 1017.8 hPa | - | - | - | - |
| 1777786555 | 0.56° C | 86% | 1018.1 hPa | - | - | - | - |
| 1777785956 | 0.56° C | 87% | 1018.3 hPa | - | - | - | - |
| 1777785356 | 0° C | 88% | 1018.4 hPa | - | - | - | - |
| 1777784756 | 0° C | 89% | 1018.8 hPa | - | - | - | - |
| 1777784156 | 0° C | 90% | 1019.1 hPa | - | - | - | - |
| 1777783556 | 0.56° C | 87% | 1019.2 hPa | - | - | - | - |
| 1777782956 | 0° C | 88% | 1019.1 hPa | - | - | - | - |
| 1777782356 | 0.56° C | 86% | 1019.2 hPa | - | - | - | - |
| 1777781756 | 0.56° C | 86% | 1019.2 hPa | - | - | - | - |
| 1777781156 | 0° C | 89% | 1019.4 hPa | - | - | - | - |
| 1777780556 | 0.56° C | 87% | 1019.2 hPa | - | - | - | - |
| 1777779956 | 0.56° C | 87% | 1019.4 hPa | - | - | - | - |
| 1777779356 | 1.11° C | 86% | 1019.4 hPa | - | - | - | - |
| 1777778756 | 1.67° C | 83% | 1019.5 hPa | - | - | - | - |
| 1777777556 | 1.11° C | 82% | 1019.8 hPa | - | - | - | - |
| 1777776956 | 1.67° C | 81% | 1019.6 hPa | - | - | - | - |
| 1777776356 | 1.11° C | 81% | 1020.1 hPa | - | - | - | - |
| 1777775756 | 1.11° C | 80% | 1020.2 hPa | - | - | - | - |
| 1777775156 | 1.11° C | 81% | 1020.5 hPa | - | - | - | - |
| 1777774556 | 0.56° C | 83% | 1020.7 hPa | - | - | - | - |
* Rain since midnight (hover to see other rain measurements)
** Current wind speed in m/s (hover to see current wind gust speed)